Time;durP1;ratioP1;P1;durP2;ratioP2;P2;SDS_P1;SDS_P2;PMS_P1;PMS_P2;Temp;Humidity;BMP_temperature;BMP_pressure;BME280_temperature;BME280_humidity;BME280_pressure;Samples;Min_cycle;Max_cycle;Signal;HPM_P1;HPM_P2
2023/07/28 00:00:20;;;;;;;10.70;8.10;;;18.30;99.90;;;;;;5052008;28;20022;-79
2023/07/28 00:02:46;;;;;;;10.00;8.20;;;18.30;99.90;;;;;;5018958;28;20038;-77
2023/07/28 00:05:12;;;;;;;10.30;9.20;;;18.40;99.90;;;;;;5051907;28;20083;-77
2023/07/28 00:07:37;;;;;;;9.73;8.25;;;18.30;99.90;;;;;;5018324;28;20075;-76
2023/07/28 00:10:03;;;;;;;12.23;8.13;;;18.40;99.90;;;;;;5035435;28;20037;-77
2023/07/28 00:12:29;;;;;;;11.48;9.13;;;18.30;99.90;;;;;;5052314;28;20461;-77
2023/07/28 00:14:55;;;;;;;10.38;8.73;;;18.40;99.90;;;;;;5035320;28;20036;-77
2023/07/28 00:17:20;;;;;;;13.35;9.65;;;18.30;99.90;;;;;;5035749;28;20056;-76
2023/07/28 00:19:46;;;;;;;11.38;9.75;;;18.40;99.90;;;;;;5019167;28;20029;-76
2023/07/28 00:22:11;;;;;;;11.85;9.75;;;18.40;99.90;;;;;;5018869;28;20112;-76
2023/07/28 00:24:37;;;;;;;11.60;9.52;;;18.30;99.90;;;;;;5051880;28;20029;-76
2023/07/28 00:27:03;;;;;;;11.95;10.40;;;18.30;99.90;;;;;;5051504;28;20064;-78
2023/07/28 00:29:29;;;;;;;11.88;9.82;;;18.40;99.90;;;;;;5035029;28;20029;-76
2023/07/28 00:31:54;;;;;;;10.82;8.95;;;18.40;99.90;;;;;;5035551;28;20032;-77
2023/07/28 00:34:20;;;;;;;11.63;9.40;;;18.30;99.90;;;;;;5035409;28;20029;-76
2023/07/28 00:36:46;;;;;;;11.57;9.15;;;18.40;99.90;;;;;;5052294;28;20017;-76
2023/07/28 00:39:11;;;;;;;12.73;8.90;;;18.30;99.90;;;;;;5039344;28;20362;-77
2023/07/28 00:41:37;;;;;;;11.45;9.15;;;18.30;99.90;;;;;;5038721;28;20024;-77
2023/07/28 00:44:03;;;;;;;11.82;9.15;;;18.30;99.90;;;;;;5055252;28;20078;-77
2023/07/28 00:46:28;;;;;;;12.30;9.43;;;18.30;99.90;;;;;;5022110;28;20099;-76
2023/07/28 00:48:55;;;;;;;13.15;8.07;;;18.30;99.90;;;;;;5055034;28;20063;-77
2023/07/28 00:51:21;;;;;;;10.27;8.30;;;18.30;99.90;;;;;;5038440;28;20362;-77
2023/07/28 00:53:46;;;;;;;9.65;6.90;;;18.30;99.90;;;;;;5018851;28;20035;-77
2023/07/28 00:56:12;;;;;;;10.65;8.85;;;18.30;99.90;;;;;;5054745;28;20078;-77
2023/07/28 00:58:38;;;;;;;9.88;8.00;;;18.40;99.90;;;;;;5056340;28;20021;-77
2023/07/28 01:01:04;;;;;;;10.45;7.88;;;18.40;99.90;;;;;;5038183;28;20052;-76
2023/07/28 01:03:30;;;;;;;11.70;9.02;;;18.40;99.90;;;;;;5054753;28;20052;-78
2023/07/28 01:06:24;;;;;;;10.88;8.18;;;18.30;99.90;;;;;;5038283;28;20060;-76
2023/07/28 01:09:03;;;;;;;12.95;8.25;;;18.40;99.90;;;;;;5054702;28;20075;-76
2023/07/28 01:11:29;;;;;;;10.50;7.53;;;18.30;99.90;;;;;;5055927;28;20083;-77
2023/07/28 01:13:54;;;;;;;13.10;9.13;;;18.30;99.90;;;;;;5054505;28;20029;-76
2023/07/28 01:16:20;;;;;;;11.77;9.35;;;18.30;99.90;;;;;;5021592;28;20025;-76
2023/07/28 01:18:46;;;;;;;10.60;8.48;;;18.30;99.90;;;;;;5038103;28;20358;-76
2023/07/28 01:21:25;;;;;;;11.35;8.75;;;18.30;99.90;;;;;;5054533;28;20051;-76
2023/07/28 01:24:27;;;;;;;9.70;7.72;;;18.30;99.90;;;;;;5054293;28;20017;-77
2023/07/28 01:26:53;;;;;;;12.68;8.80;;;18.40;99.90;;;;;;5055582;28;20084;-77
2023/07/28 01:29:20;;;;;;;13.93;8.85;;;18.40;99.90;;;;;;5037914;28;20037;-83
2023/07/28 01:31:48;;;;;;;13.73;8.32;;;18.30;99.90;;;;;;5054715;28;20393;-84
2023/07/28 01:34:14;;;;;;;14.63;9.27;;;18.40;99.90;;;;;;5054763;28;20409;-83
2023/07/28 01:36:40;;;;;;;13.77;10.02;;;18.40;99.90;;;;;;5056575;28;20029;-83
2023/07/28 01:39:06;;;;;;;12.57;9.50;;;18.40;99.90;;;;;;5038396;28;20098;-83
2023/07/28 01:41:31;;;;;;;13.68;9.93;;;18.30;99.90;;;;;;5038034;28;20541;-85
2023/07/28 01:43:58;;;;;;;13.27;10.05;;;18.40;99.90;;;;;;5038113;28;20469;-77
2023/07/28 01:46:24;;;;;;;15.02;11.13;;;18.40;99.90;;;;;;5037718;28;20025;-76
2023/07/28 01:48:49;;;;;;;16.33;10.93;;;18.40;99.90;;;;;;5053914;28;20507;-76
2023/07/28 01:51:15;;;;;;;17.58;11.80;;;18.30;99.90;;;;;;5037480;28;20027;-76
2023/07/28 01:53:41;;;;;;;18.50;12.95;;;18.40;99.90;;;;;;5037083;28;20112;-76
2023/07/28 01:56:06;;;;;;;14.57;10.70;;;18.40;99.90;;;;;;5053807;28;20058;-77
2023/07/28 01:58:32;;;;;;;14.45;11.07;;;18.30;99.90;;;;;;5054211;28;20025;-77
2023/07/28 02:00:57;;;;;;;15.43;11.10;;;18.40;99.90;;;;;;5055058;28;20025;-77
2023/07/28 02:03:23;;;;;;;15.73;11.00;;;18.30;99.90;;;;;;5037325;28;20425;-77
2023/07/28 02:05:49;;;;;;;17.13;10.98;;;18.30;99.90;;;;;;5037528;28;20028;-77
2023/07/28 02:08:15;;;;;;;16.95;11.55;;;18.40;99.90;;;;;;5049391;28;20029;-77
2023/07/28 02:10:41;;;;;;;18.42;12.43;;;18.30;99.90;;;;;;5001717;28;20129;-83
2023/07/28 02:13:06;;;;;;;19.92;12.82;;;18.30;99.90;;;;;;5030505;28;20030;-84
2023/07/28 02:15:32;;;;;;;18.77;12.52;;;18.40;99.90;;;;;;5034440;28;20061;-84
2023/07/28 02:17:57;;;;;;;19.33;13.18;;;18.40;99.90;;;;;;5035977;28;20026;-83
2023/07/28 02:20:23;;;;;;;21.98;14.05;;;18.40;99.90;;;;;;5017929;28;20061;-84
2023/07/28 02:22:49;;;;;;;21.40;14.15;;;18.40;99.90;;;;;;5017777;28;20033;-83
2023/07/28 02:25:14;;;;;;;25.38;14.15;;;18.40;99.90;;;;;;5035390;28;20040;-83
2023/07/28 02:27:40;;;;;;;24.13;13.93;;;18.40;99.90;;;;;;5017222;28;20742;-83
2023/07/28 02:30:06;;;;;;;20.65;13.73;;;18.40;99.90;;;;;;5017387;28;20025;-83
2023/07/28 02:32:32;;;;;;;18.23;12.48;;;18.40;99.90;;;;;;5035012;28;20047;-83
2023/07/28 02:34:58;;;;;;;19.77;12.65;;;18.40;99.90;;;;;;5019676;28;20083;-83
2023/07/28 02:37:25;;;;;;;25.50;13.98;;;18.40;99.90;;;;;;5041139;28;20029;-83
2023/07/28 02:39:50;;;;;;;23.52;15.55;;;18.40;99.90;;;;;;5033301;28;20028;-84
2023/07/28 02:42:16;;;;;;;21.15;14.18;;;18.40;99.90;;;;;;5049761;28;20109;-83
2023/07/28 02:44:42;;;;;;;26.20;15.13;;;18.40;99.90;;;;;;5034405;28;20036;-84
2023/07/28 02:47:08;;;;;;;23.48;14.25;;;18.40;99.90;;;;;;5034475;28;20095;-83
2023/07/28 02:49:33;;;;;;;27.02;15.70;;;18.40;99.90;;;;;;5049221;28;20037;-84
2023/07/28 02:51:59;;;;;;;26.10;14.68;;;18.40;99.90;;;;;;5053383;28;20029;-86
2023/07/28 02:54:25;;;;;;;22.98;14.20;;;18.40;99.90;;;;;;5036200;28;20036;-84
2023/07/28 02:56:51;;;;;;;21.65;14.85;;;18.50;99.90;;;;;;5036166;28;20025;-84
2023/07/28 02:59:17;;;;;;;22.85;14.52;;;18.50;99.90;;;;;;5036101;28;20049;-84
2023/07/28 03:01:42;;;;;;;24.88;14.60;;;18.50;99.90;;;;;;5036487;28;20091;-85
2023/07/28 03:04:08;;;;;;;25.25;15.95;;;18.50;99.90;;;;;;5036290;28;20040;-83
2023/07/28 03:06:34;;;;;;;26.27;15.95;;;18.50;99.90;;;;;;5052695;28;20029;-84
2023/07/28 03:08:59;;;;;;;27.17;16.52;;;18.50;99.90;;;;;;5036499;28;20021;-84
2023/07/28 03:11:25;;;;;;;25.50;14.68;;;18.50;99.90;;;;;;5035940;28;20021;-77
2023/07/28 03:13:51;;;;;;;24.27;15.60;;;18.50;99.90;;;;;;5053866;28;20033;-76
2023/07/28 03:16:16;;;;;;;26.85;16.23;;;18.50;99.90;;;;;;5051612;28;20033;-77
2023/07/28 03:18:42;;;;;;;23.23;15.55;;;18.50;99.90;;;;;;5036359;28;20074;-83
2023/07/28 03:21:09;;;;;;;24.70;16.13;;;18.50;99.90;;;;;;5052519;28;20377;-84
2023/07/28 03:23:34;;;;;;;24.83;14.32;;;18.50;99.90;;;;;;5052921;28;20481;-83
2023/07/28 03:26:00;;;;;;;31.45;17.20;;;18.50;99.90;;;;;;5053518;28;20159;-84
2023/07/28 03:28:28;;;;;;;26.38;16.60;;;18.50;99.90;;;;;;5049432;28;20080;-84
2023/07/28 03:30:54;;;;;;;30.52;16.98;;;18.50;99.90;;;;;;5016427;28;20021;-83
2023/07/28 03:33:20;;;;;;;27.05;16.33;;;18.50;99.90;;;;;;5032448;28;20036;-83
2023/07/28 03:35:45;;;;;;;28.17;16.30;;;18.50;99.90;;;;;;5048506;28;20025;-83
2023/07/28 03:38:11;;;;;;;29.85;17.55;;;18.50;99.90;;;;;;5054034;28;20065;-83
2023/07/28 03:40:36;;;;;;;31.48;18.23;;;18.50;99.90;;;;;;5035836;28;20035;-84
2023/07/28 03:43:02;;;;;;;27.95;17.58;;;18.50;99.90;;;;;;5036068;28;20424;-84
2023/07/28 03:45:28;;;;;;;29.20;17.08;;;18.50;99.90;;;;;;5052134;28;20024;-84
2023/07/28 03:47:54;;;;;;;27.83;16.63;;;18.50;99.90;;;;;;5035845;28;20033;-83
2023/07/28 03:50:20;;;;;;;38.47;19.95;;;18.50;99.90;;;;;;5053173;28;20032;-83
2023/07/28 03:52:45;;;;;;;34.75;18.42;;;18.50;99.90;;;;;;5035590;28;20118;-83
2023/07/28 03:55:11;;;;;;;30.27;17.55;;;18.50;99.90;;;;;;5052043;28;20036;-86
2023/07/28 03:57:37;;;;;;;33.88;20.23;;;18.50;99.90;;;;;;5035774;28;20416;-83
2023/07/28 04:00:03;;;;;;;38.88;20.15;;;18.50;99.90;;;;;;5035868;28;20036;-82
2023/07/28 04:02:29;;;;;;;32.85;17.70;;;18.50;99.90;;;;;;5019246;28;20036;-82
2023/07/28 04:04:55;;;;;;;33.17;19.20;;;18.50;99.90;;;;;;5052239;28;20037;-83
2023/07/28 04:07:21;;;;;;;37.22;18.73;;;18.50;99.90;;;;;;5051974;28;20115;-84
2023/07/28 04:09:46;;;;;;;32.30;17.02;;;18.50;99.90;;;;;;5035914;28;20116;-83
2023/07/28 04:12:12;;;;;;;34.03;19.38;;;18.50;99.90;;;;;;5054235;28;20115;-83
2023/07/28 04:14:38;;;;;;;37.58;20.98;;;18.50;99.90;;;;;;5039300;28;20032;-83
2023/07/28 04:17:04;;;;;;;36.25;20.50;;;18.50;99.90;;;;;;5039967;28;20025;-83
2023/07/28 04:19:29;;;;;;;39.05;21.15;;;18.50;99.90;;;;;;5039716;28;20029;-83
2023/07/28 04:21:57;;;;;;;34.30;20.02;;;18.50;99.90;;;;;;5023253;28;20033;-84
2023/07/28 04:24:22;;;;;;;41.47;20.63;;;18.50;99.90;;;;;;5056109;28;20017;-85
2023/07/28 04:26:51;;;;;;;38.20;20.60;;;18.50;99.90;;;;;;5022886;28;20071;-84
2023/07/28 04:29:16;;;;;;;35.92;19.73;;;18.40;99.90;;;;;;5039883;28;20031;-87
2023/07/28 04:31:42;;;;;;;40.45;20.00;;;18.50;99.90;;;;;;5057919;28;20029;-84
2023/07/28 04:34:08;;;;;;;35.55;19.38;;;18.40;99.90;;;;;;5056283;28;20040;-84
2023/07/28 04:36:34;;;;;;;37.47;20.27;;;18.50;99.90;;;;;;5039493;28;20033;-84
2023/07/28 04:38:59;;;;;;;39.55;21.58;;;18.50;99.90;;;;;;5039345;28;20025;-84
2023/07/28 04:41:25;;;;;;;38.50;20.65;;;18.50;99.90;;;;;;5023098;28;20029;-84
2023/07/28 04:43:51;;;;;;;41.00;21.98;;;18.50;99.90;;;;;;5056162;28;20470;-82
2023/07/28 04:46:16;;;;;;;42.45;21.65;;;18.50;99.90;;;;;;5056658;28;20033;-84
2023/07/28 04:48:42;;;;;;;40.75;22.05;;;18.50;99.90;;;;;;5055655;28;20021;-85
2023/07/28 04:51:08;;;;;;;43.20;21.73;;;18.50;99.90;;;;;;5055653;28;20033;-83
2023/07/28 04:53:33;;;;;;;39.22;21.40;;;18.50;99.90;;;;;;5038756;28;20052;-84
2023/07/28 04:55:59;;;;;;;41.00;21.85;;;18.50;99.90;;;;;;5038690;28;20025;-85
2023/07/28 04:58:25;;;;;;;37.08;20.20;;;18.50;99.90;;;;;;5038849;28;20489;-83
2023/07/28 05:00:50;;;;;;;35.97;18.88;;;18.50;99.90;;;;;;5055192;28;20032;-83
2023/07/28 05:03:16;;;;;;;37.67;20.02;;;18.50;99.90;;;;;;5038857;28;20036;-83
2023/07/28 05:05:45;;;;;;;42.08;20.55;;;18.50;99.90;;;;;;5055525;28;20519;-83
2023/07/28 05:08:10;;;;;;;43.10;22.17;;;18.50;99.90;;;;;;5055239;28;20021;-86
2023/07/28 05:10:36;;;;;;;41.65;22.08;;;18.50;99.90;;;;;;5038642;28;20393;-84
2023/07/28 05:13:04;;;;;;;37.60;20.42;;;18.50;99.90;;;;;;5055045;28;20116;-84
2023/07/28 05:15:30;;;;;;;37.25;21.38;;;18.50;99.90;;;;;;5056228;28;20021;-83
2023/07/28 05:17:55;;;;;;;43.25;21.73;;;18.50;99.90;;;;;;5055257;28;20111;-84
2023/07/28 05:20:21;;;;;;;39.53;21.85;;;18.50;99.90;;;;;;5021785;28;20102;-84
2023/07/28 05:22:47;;;;;;;39.42;21.60;;;18.50;99.90;;;;;;5054709;28;20500;-83
2023/07/28 05:25:12;;;;;;;40.25;21.58;;;18.50;99.90;;;;;;5039182;28;20607;-84
2023/07/28 05:27:38;;;;;;;47.88;23.48;;;18.50;99.90;;;;;;5038706;28;20114;-83
2023/07/28 05:30:04;;;;;;;51.17;25.17;;;18.50;99.90;;;;;;5054816;28;20029;-85
2023/07/28 05:32:31;;;;;;;46.35;24.27;;;18.50;99.90;;;;;;5021492;28;20029;-83
2023/07/28 05:34:56;;;;;;;41.58;23.60;;;18.50;99.90;;;;;;5054885;28;20025;-82
2023/07/28 05:37:22;;;;;;;41.00;23.20;;;18.50;99.90;;;;;;5054111;28;20405;-83
2023/07/28 05:39:47;;;;;;;37.38;21.48;;;18.50;99.90;;;;;;5037081;28;20025;-84
2023/07/28 05:42:13;;;;;;;42.17;23.67;;;18.50;99.90;;;;;;5054485;28;20025;-83
2023/07/28 05:44:39;;;;;;;39.67;21.60;;;18.60;99.90;;;;;;5037606;28;20029;-84
2023/07/28 05:47:05;;;;;;;37.20;21.52;;;18.60;99.90;;;;;;5037978;28;20029;-83
2023/07/28 05:49:30;;;;;;;36.28;20.73;;;18.60;99.90;;;;;;5037772;28;20033;-84
2023/07/28 05:51:56;;;;;;;33.60;19.45;;;18.60;99.90;;;;;;5054669;28;20029;-84
2023/07/28 05:54:22;;;;;;;34.50;20.10;;;18.60;99.90;;;;;;5037426;28;20104;-83
2023/07/28 05:56:47;;;;;;;36.15;19.35;;;18.60;99.90;;;;;;5038029;28;20028;-84
2023/07/28 05:59:13;;;;;;;36.67;20.05;;;18.60;99.90;;;;;;5037704;28;20025;-85
2023/07/28 06:01:38;;;;;;;34.38;21.15;;;18.70;99.90;;;;;;5037167;28;20017;-82
2023/07/28 06:04:04;;;;;;;31.35;18.88;;;18.70;99.90;;;;;;5054282;28;20021;-84
2023/07/28 06:06:30;;;;;;;31.83;18.73;;;18.60;99.90;;;;;;5054145;28;20029;-84
2023/07/28 06:08:55;;;;;;;27.75;17.40;;;18.70;99.90;;;;;;5053922;28;20440;-85
2023/07/28 06:11:21;;;;;;;29.98;17.23;;;18.70;99.90;;;;;;5033809;28;20032;-83
2023/07/28 06:13:47;;;;;;;25.63;16.45;;;18.70;99.90;;;;;;5053927;28;20469;-84
2023/07/28 06:16:14;;;;;;;31.35;18.48;;;18.70;99.90;;;;;;5034916;28;20037;-83
2023/07/28 06:18:39;;;;;;;29.63;16.83;;;18.80;99.90;;;;;;5048777;28;20534;-84
2023/07/28 06:21:05;;;;;;;25.27;16.80;;;18.80;99.90;;;;;;5033464;28;20048;-84
2023/07/28 06:23:30;;;;;;;25.85;16.98;;;18.80;99.90;;;;;;5034856;28;20109;-84
2023/07/28 06:25:56;;;;;;;29.85;16.00;;;18.80;99.90;;;;;;5033549;28;20033;-83
2023/07/28 06:28:22;;;;;;;24.23;14.98;;;18.90;99.90;;;;;;5017087;28;20053;-83
2023/07/28 06:30:52;;;;;;;25.55;16.25;;;18.90;99.90;;;;;;5033289;28;20029;-84
2023/07/28 06:33:18;;;;;;;30.55;18.80;;;18.90;99.90;;;;;;5033323;28;20042;-82
2023/07/28 06:35:44;;;;;;;29.77;18.23;;;18.90;99.90;;;;;;5033997;28;20069;-84
2023/07/28 06:38:10;;;;;;;31.65;18.60;;;18.90;99.90;;;;;;5033504;28;20025;-85
2023/07/28 06:40:36;;;;;;;28.08;17.65;;;19.00;99.90;;;;;;5033258;28;20030;-83
2023/07/28 06:43:02;;;;;;;28.58;17.35;;;19.00;99.90;;;;;;5034844;28;20466;-82
2023/07/28 06:45:27;;;;;;;30.98;17.23;;;19.00;99.90;;;;;;5016676;28;20034;-82
2023/07/28 06:47:53;;;;;;;30.30;19.05;;;19.00;99.90;;;;;;5034212;28;20083;-83
2023/07/28 06:50:19;;;;;;;31.20;20.35;;;19.00;99.90;;;;;;5032802;28;20045;-83
2023/07/28 06:52:47;;;;;;;34.13;20.98;;;19.00;99.90;;;;;;5032082;28;20030;-83
2023/07/28 06:55:14;;;;;;;33.38;20.23;;;19.10;99.90;;;;;;5019659;28;20033;-83
2023/07/28 06:57:40;;;;;;;35.17;21.05;;;19.10;99.90;;;;;;5036140;28;20465;-85
2023/07/28 07:00:09;;;;;;;35.63;21.35;;;19.10;99.90;;;;;;5019564;28;20032;-83
2023/07/28 07:02:35;;;;;;;36.17;20.70;;;19.10;99.90;;;;;;5036266;28;20424;-82
2023/07/28 07:05:01;;;;;;;39.42;21.02;;;19.10;99.90;;;;;;5052359;28;20017;-83
2023/07/28 07:07:26;;;;;;;38.50;21.55;;;19.10;99.90;;;;;;5054193;28;20370;-82
2023/07/28 07:09:52;;;;;;;34.45;20.15;;;19.10;99.90;;;;;;5035953;28;20485;-82
2023/07/28 07:12:19;;;;;;;27.65;17.58;;;19.20;99.90;;;;;;5052484;28;20086;-82
2023/07/28 07:14:44;;;;;;;29.65;19.02;;;19.30;99.90;;;;;;5052354;28;20028;-83
2023/07/28 07:17:10;;;;;;;26.48;17.77;;;19.40;99.90;;;;;;5035899;28;20025;-83
2023/07/28 07:19:36;;;;;;;28.10;16.75;;;19.50;99.90;;;;;;5036484;28;20119;-82
2023/07/28 07:22:01;;;;;;;27.35;16.27;;;19.50;99.90;;;;;;5035945;28;20053;-83
2023/07/28 07:24:27;;;;;;;24.60;15.02;;;19.60;99.90;;;;;;5019244;28;20029;-83
2023/07/28 07:26:53;;;;;;;26.90;16.88;;;19.60;99.90;;;;;;5035627;28;20048;-83
2023/07/28 07:29:18;;;;;;;26.65;17.27;;;19.60;99.90;;;;;;5035734;28;20033;-82
2023/07/28 07:31:44;;;;;;;21.23;14.15;;;19.60;99.90;;;;;;5036395;28;20031;-83
2023/07/28 07:34:10;;;;;;;22.00;14.30;;;19.70;99.90;;;;;;5038680;28;20049;-82
2023/07/28 07:36:35;;;;;;;22.27;14.32;;;19.70;99.90;;;;;;5032396;28;20080;-82
2023/07/28 07:39:01;;;;;;;21.25;13.82;;;19.70;99.90;;;;;;5015897;28;20022;-82
2023/07/28 07:41:27;;;;;;;18.92;13.57;;;19.70;99.90;;;;;;5032557;28;20470;-83
2023/07/28 07:43:54;;;;;;;19.75;12.77;;;19.70;99.90;;;;;;5032506;28;20112;-81
2023/07/28 07:46:20;;;;;;;20.92;13.13;;;19.80;99.90;;;;;;5033234;28;20030;-84
2023/07/28 07:48:46;;;;;;;20.63;12.25;;;19.80;99.90;;;;;;5033601;28;20082;-82
2023/07/28 07:51:11;;;;;;;19.60;12.60;;;19.90;99.90;;;;;;5032260;28;20040;-82
2023/07/28 07:53:37;;;;;;;17.48;12.00;;;20.00;99.90;;;;;;5032381;28;20037;-83
2023/07/28 07:56:04;;;;;;;20.40;13.10;;;20.00;99.90;;;;;;5015780;28;20028;-83
2023/07/28 07:58:30;;;;;;;21.60;12.20;;;20.10;99.90;;;;;;5015756;28;20156;-82
2023/07/28 08:00:56;;;;;;;20.17;12.80;;;20.20;99.90;;;;;;5032011;28;20462;-83
2023/07/28 08:03:22;;;;;;;21.92;12.98;;;20.20;99.90;;;;;;5032023;28;20017;-81
2023/07/28 08:05:47;;;;;;;18.63;13.25;;;20.30;99.90;;;;;;5038149;28;20048;-84
2023/07/28 08:08:16;;;;;;;19.90;12.95;;;20.20;99.90;;;;;;5034928;28;20022;-83
2023/07/28 08:10:43;;;;;;;18.83;12.25;;;20.30;99.90;;;;;;5051934;28;20109;-83
2023/07/28 08:13:09;;;;;;;20.70;13.10;;;20.30;99.90;;;;;;5051848;28;20116;-83
2023/07/28 08:15:34;;;;;;;20.20;13.07;;;20.30;99.90;;;;;;5051629;28;20450;-83
2023/07/28 08:18:00;;;;;;;18.45;12.18;;;20.20;99.90;;;;;;5051715;28;20036;-84
2023/07/28 08:20:26;;;;;;;19.05;12.68;;;20.20;99.90;;;;;;5051748;28;20120;-83
2023/07/28 08:22:52;;;;;;;18.80;12.40;;;20.30;99.90;;;;;;5051697;28;20033;-81
2023/07/28 08:25:18;;;;;;;19.95;12.88;;;20.30;99.90;;;;;;5036003;28;20473;-84
2023/07/28 08:27:43;;;;;;;20.20;13.40;;;20.40;99.90;;;;;;5052008;28;20185;-83
2023/07/28 08:30:10;;;;;;;19.20;13.13;;;20.40;99.90;;;;;;5047961;28;20112;-84
2023/07/28 08:32:36;;;;;;;24.77;14.20;;;20.40;99.90;;;;;;5020907;28;20478;-83
2023/07/28 08:35:03;;;;;;;22.23;14.05;;;20.40;99.90;;;;;;5036343;28;20452;-84
2023/07/28 08:37:29;;;;;;;18.10;13.27;;;20.40;99.90;;;;;;5051717;28;20029;-85
2023/07/28 08:39:54;;;;;;;20.77;14.00;;;20.40;99.90;;;;;;5051570;28;20029;-86
2023/07/28 08:42:22;;;;;;;20.35;13.38;;;20.40;99.90;;;;;;5035143;28;20040;-76
2023/07/28 08:44:48;;;;;;;20.23;13.50;;;20.40;99.90;;;;;;5039885;28;20096;-76
2023/07/28 08:47:14;;;;;;;21.15;13.90;;;20.30;99.90;;;;;;5051185;28;20187;-76
2023/07/28 08:49:40;;;;;;;15.77;10.95;;;20.40;99.90;;;;;;5051427;28;20029;-76
2023/07/28 08:52:06;;;;;;;16.98;11.38;;;20.50;99.90;;;;;;5050976;28;20039;-77
2023/07/28 08:54:32;;;;;;;18.30;11.50;;;20.60;99.90;;;;;;5050971;28;20047;-76
2023/07/28 08:56:58;;;;;;;18.17;10.65;;;20.60;99.90;;;;;;5051237;28;20025;-78
2023/07/28 08:59:27;;;;;;;15.95;9.90;;;20.70;99.90;;;;;;5054554;28;20021;-76
2023/07/28 09:01:55;;;;;;;18.48;11.52;;;20.70;99.90;;;;;;5054519;28;20068;-76
2023/07/28 09:04:21;;;;;;;14.98;10.07;;;20.70;99.90;;;;;;5054631;28;20112;-77
2023/07/28 09:06:49;;;;;;;17.85;10.52;;;20.80;99.90;;;;;;5042724;28;20585;-77
2023/07/28 09:09:15;;;;;;;16.85;10.35;;;20.80;99.90;;;;;;5018414;28;20489;-77
2023/07/28 09:11:46;;;;;;;14.60;9.50;;;20.80;99.90;;;;;;5034616;28;20494;-77
2023/07/28 09:14:13;;;;;;;13.15;8.98;;;20.80;99.90;;;;;;5035855;28;20044;-76
2023/07/28 09:16:39;;;;;;;15.57;11.30;;;20.80;99.90;;;;;;5018066;28;20029;-77
2023/07/28 09:19:06;;;;;;;17.55;11.07;;;20.70;99.90;;;;;;5036086;28;20454;-76
2023/07/28 09:21:33;;;;;;;14.45;10.43;;;20.80;99.90;;;;;;5034810;28;20017;-78
2023/07/28 09:24:05;;;;;;;13.93;9.68;;;20.80;99.90;;;;;;5055885;28;20022;-76
2023/07/28 09:26:41;;;;;;;14.38;9.75;;;20.90;99.90;;;;;;5053915;28;20017;-77
2023/07/28 09:29:21;;;;;;;15.27;9.88;;;21.00;99.90;;;;;;5054348;28;20048;-78
2023/07/28 09:31:49;;;;;;;14.13;9.13;;;21.00;99.90;;;;;;5052716;28;20040;-79
2023/07/28 09:34:28;;;;;;;13.32;9.02;;;21.10;99.90;;;;;;5053020;28;20179;-79
2023/07/28 09:36:55;;;;;;;11.50;8.65;;;21.30;99.90;;;;;;5038160;28;20033;-78
2023/07/28 09:39:21;;;;;;;13.55;9.35;;;21.40;99.90;;;;;;5054264;28;20059;-78
2023/07/28 09:41:47;;;;;;;12.05;9.40;;;21.50;99.90;;;;;;5054207;28;20057;-79
2023/07/28 09:44:15;;;;;;;14.15;8.75;;;21.70;99.90;;;;;;5055577;28;20021;-79
2023/07/28 09:47:01;;;;;;;12.18;7.82;;;21.90;99.90;;;;;;5054457;28;20068;-79
2023/07/28 09:49:39;;;;;;;14.40;9.63;;;22.10;99.90;;;;;;5053884;28;20039;-79
2023/07/28 09:52:09;;;;;;;13.20;9.20;;;22.20;99.90;;;;;;5038578;28;20082;-80
2023/07/28 09:54:43;;;;;;;13.90;9.70;;;22.30;99.90;;;;;;5056021;28;20082;-81
2023/07/28 09:57:15;;;;;;;13.23;9.43;;;22.30;99.90;;;;;;5054091;28;20021;-81
2023/07/28 09:59:42;;;;;;;12.95;8.95;;;22.30;99.90;;;;;;5056401;28;20052;-81
2023/07/28 10:02:08;;;;;;;16.23;10.23;;;22.30;99.90;;;;;;5038826;28;20028;-81
2023/07/28 10:04:35;;;;;;;12.57;9.05;;;22.40;99.90;;;;;;5055886;28;20045;-78
2023/07/28 10:07:01;;;;;;;12.30;8.73;;;22.50;99.90;;;;;;5040955;28;20059;-79
2023/07/28 10:09:30;;;;;;;14.20;9.30;;;22.60;99.90;;;;;;5000249;28;20030;-79
2023/07/28 10:11:56;;;;;;;10.82;8.15;;;22.70;99.90;;;;;;5034503;28;20095;-79
2023/07/28 10:14:30;;;;;;;11.43;7.88;;;22.80;99.90;;;;;;5054927;28;20112;-79
2023/07/28 10:16:58;;;;;;;13.20;8.65;;;22.90;99.90;;;;;;5051401;28;20374;-79
2023/07/28 10:19:27;;;;;;;12.63;8.18;;;23.00;99.70;;;;;;5036735;28;20045;-79
2023/07/28 10:22:00;;;;;;;11.55;8.80;;;23.00;99.10;;;;;;5035158;28;20025;-79
2023/07/28 10:24:52;;;;;;;11.98;8.63;;;23.00;98.60;;;;;;5034012;28;20045;-79
2023/07/28 10:27:36;;;;;;;10.15;7.30;;;23.20;98.80;;;;;;5034055;28;20571;-80
2023/07/28 10:30:04;;;;;;;12.43;8.75;;;23.40;98.70;;;;;;5033906;28;20028;-80
2023/07/28 10:32:41;;;;;;;14.23;9.48;;;23.60;98.00;;;;;;5046651;28;20057;-79
2023/07/28 10:35:12;;;;;;;13.10;7.72;;;23.80;97.30;;;;;;5053407;28;20021;-79
2023/07/28 10:37:39;;;;;;;11.23;7.25;;;23.90;96.80;;;;;;5053280;28;20059;-80
2023/07/28 10:40:34;;;;;;;11.70;9.00;;;23.90;96.40;;;;;;5053531;28;20021;-80
2023/07/28 10:43:01;;;;;;;10.18;7.82;;;24.00;95.80;;;;;;5044059;28;20041;-80
2023/07/28 10:45:30;;;;;;;9.93;7.32;;;24.30;96.10;;;;;;5053086;28;20025;-80
2023/07/28 10:47:59;;;;;;;11.65;7.45;;;24.50;95.50;;;;;;5054138;28;20044;-81
2023/07/28 10:50:30;;;;;;;11.48;8.02;;;24.60;94.70;;;;;;5053027;28;20057;-81
2023/07/28 10:52:56;;;;;;;11.20;8.30;;;24.80;93.80;;;;;;5052805;28;20021;-80
2023/07/28 10:55:24;;;;;;;14.50;7.35;;;25.10;93.30;;;;;;5024309;28;20482;-81
2023/07/28 10:57:51;;;;;;;9.20;6.60;;;25.50;93.10;;;;;;5053726;28;20112;-79
2023/07/28 11:00:19;;;;;;;9.45;7.28;;;26.00;93.30;;;;;;5052403;28;20032;-81
2023/07/28 11:02:47;;;;;;;8.70;6.32;;;26.40;91.60;;;;;;5054021;28;20040;-79
2023/07/28 11:05:24;;;;;;;9.63;6.35;;;26.60;91.20;;;;;;5035520;28;20053;-80
2023/07/28 11:07:54;;;;;;;9.93;6.57;;;26.50;88.70;;;;;;5048321;28;23271;-80
2023/07/28 11:10:20;;;;;;;8.57;5.72;;;26.40;86.70;;;;;;5052728;28;20040;-79
2023/07/28 11:13:06;;;;;;;7.00;5.63;;;26.20;84.90;;;;;;5035671;28;20029;-78
2023/07/28 11:15:33;;;;;;;8.70;4.88;;;26.10;83.40;;;;;;5052226;28;20028;-78
2023/07/28 11:18:00;;;;;;;9.27;6.22;;;25.90;83.70;;;;;;5052654;28;20465;-77
2023/07/28 11:20:30;;;;;;;9.48;6.53;;;25.70;83.00;;;;;;5052516;28;20603;-79
2023/07/28 11:23:04;;;;;;;10.52;8.13;;;25.50;82.80;;;;;;5052464;28;20025;-79
2023/07/28 11:25:31;;;;;;;11.48;8.25;;;25.40;83.00;;;;;;5052098;28;20082;-79
2023/07/28 11:27:57;;;;;;;11.90;9.30;;;25.30;83.40;;;;;;5052382;28;20083;-78
2023/07/28 11:30:24;;;;;;;10.30;7.43;;;25.20;83.70;;;;;;5035591;28;20049;-78
2023/07/28 11:32:51;;;;;;;11.35;8.38;;;25.30;84.90;;;;;;5053437;28;20040;-77
2023/07/28 11:35:19;;;;;;;10.55;7.70;;;25.20;83.30;;;;;;5052835;28;20036;-78
2023/07/28 11:37:51;;;;;;;9.43;7.15;;;25.20;83.40;;;;;;5053309;28;20025;-78
2023/07/28 11:40:21;;;;;;;9.80;6.82;;;25.10;83.80;;;;;;5051844;28;20127;-79
2023/07/28 11:42:52;;;;;;;8.50;6.85;;;25.20;83.80;;;;;;5052145;28;20115;-77
2023/07/28 11:45:19;;;;;;;10.43;6.90;;;25.20;83.90;;;;;;5051962;28;20025;-80
2023/07/28 11:47:54;;;;;;;10.18;7.22;;;25.20;84.10;;;;;;5035066;28;20127;-80
2023/07/28 11:50:25;;;;;;;8.75;6.15;;;25.40;84.60;;;;;;5040651;28;20021;-81
2023/07/28 11:52:50;;;;;;;10.45;6.47;;;25.60;84.50;;;;;;5053577;28;20025;-81
2023/07/28 11:55:16;;;;;;;9.38;6.57;;;25.80;83.20;;;;;;5024823;28;20037;-79
2023/07/28 11:57:43;;;;;;;9.57;6.30;;;25.90;81.80;;;;;;5034806;28;20032;-80
2023/07/28 12:00:09;;;;;;;7.95;5.93;;;25.90;80.70;;;;;;5048209;28;20022;-78
2023/07/28 12:02:35;;;;;;;8.23;5.97;;;25.80;80.70;;;;;;5041321;28;20036;-79
2023/07/28 12:05:01;;;;;;;10.95;7.53;;;25.80;80.40;;;;;;5027952;28;20049;-81
2023/07/28 12:07:33;;;;;;;10.73;6.55;;;25.70;79.80;;;;;;5031788;28;20029;-78
2023/07/28 12:10:08;;;;;;;9.10;6.60;;;25.60;79.90;;;;;;5031897;28;20112;-79
2023/07/28 12:13:07;;;;;;;8.13;5.95;;;25.60;79.50;;;;;;5046329;28;20025;-79
2023/07/28 12:15:33;;;;;;;8.18;4.97;;;25.70;80.00;;;;;;5031466;28;20103;-79
2023/07/28 12:18:04;;;;;;;8.82;6.20;;;25.70;80.10;;;;;;5033007;28;20025;-80
2023/07/28 12:20:34;;;;;;;8.35;5.72;;;26.00;79.80;;;;;;5049294;28;20123;-79
2023/07/28 12:23:00;;;;;;;7.43;5.57;;;26.20;79.50;;;;;;5051661;28;20496;-79
2023/07/28 12:25:26;;;;;;;7.03;4.75;;;26.20;78.90;;;;;;5018557;28;20515;-80
2023/07/28 12:27:52;;;;;;;9.27;6.13;;;26.20;78.20;;;;;;5034809;28;20048;-80
2023/07/28 12:30:17;;;;;;;7.53;5.07;;;26.30;78.10;;;;;;5035196;28;20021;-85